sensor_id;sensor_type;location;lat;lon;timestamp;P1;durP1;ratioP1;P2;durP2;ratioP2
74674;SDS011;63200;48.810;12.352;2023-06-10T00:00:48;8.93;;;6.30;;
74674;SDS011;63200;48.810;12.352;2023-06-10T00:03:13;6.88;;;6.18;;
74674;SDS011;63200;48.810;12.352;2023-06-10T00:05:39;6.05;;;5.40;;
74674;SDS011;63200;48.810;12.352;2023-06-10T00:08:05;7.82;;;5.68;;
74674;SDS011;63200;48.810;12.352;2023-06-10T00:10:36;7.32;;;5.97;;
74674;SDS011;63200;48.810;12.352;2023-06-10T00:13:03;7.72;;;5.90;;
74674;SDS011;63200;48.810;12.352;2023-06-10T00:15:33;9.45;;;6.28;;
74674;SDS011;63200;48.810;12.352;2023-06-10T00:18:00;8.10;;;6.63;;
74674;SDS011;63200;48.810;12.352;2023-06-10T00:20:26;7.60;;;6.90;;
74674;SDS011;63200;48.810;12.352;2023-06-10T00:22:51;7.90;;;7.10;;
74674;SDS011;63200;48.810;12.352;2023-06-10T00:25:17;7.88;;;6.40;;
74674;SDS011;63200;48.810;12.352;2023-06-10T00:27:42;7.60;;;6.80;;
74674;SDS011;63200;48.810;12.352;2023-06-10T00:30:08;7.38;;;6.57;;
74674;SDS011;63200;48.810;12.352;2023-06-10T00:32:34;7.95;;;7.15;;
74674;SDS011;63200;48.810;12.352;2023-06-10T00:35:00;10.15;;;7.07;;
74674;SDS011;63200;48.810;12.352;2023-06-10T00:37:26;10.63;;;7.03;;
74674;SDS011;63200;48.810;12.352;2023-06-10T00:39:52;7.57;;;6.88;;
74674;SDS011;63200;48.810;12.352;2023-06-10T00:42:17;8.40;;;6.38;;
74674;SDS011;63200;48.810;12.352;2023-06-10T00:44:42;7.80;;;6.97;;
74674;SDS011;63200;48.810;12.352;2023-06-10T00:47:08;9.32;;;7.30;;
74674;SDS011;63200;48.810;12.352;2023-06-10T00:49:33;9.95;;;7.40;;
74674;SDS011;63200;48.810;12.352;2023-06-10T00:51:59;8.02;;;6.68;;
74674;SDS011;63200;48.810;12.352;2023-06-10T00:54:26;10.02;;;6.60;;
74674;SDS011;63200;48.810;12.352;2023-06-10T00:56:52;9.10;;;7.25;;
74674;SDS011;63200;48.810;12.352;2023-06-10T00:59:18;7.18;;;6.55;;
74674;SDS011;63200;48.810;12.352;2023-06-10T01:01:43;8.45;;;6.70;;
74674;SDS011;63200;48.810;12.352;2023-06-10T01:04:12;7.00;;;6.30;;
74674;SDS011;63200;48.810;12.352;2023-06-10T01:09:34;8.65;;;6.15;;
74674;SDS011;63200;48.810;12.352;2023-06-10T01:12:16;7.38;;;6.47;;
74674;SDS011;63200;48.810;12.352;2023-06-10T01:14:47;8.10;;;6.65;;
74674;SDS011;63200;48.810;12.352;2023-06-10T01:17:13;10.52;;;6.82;;
74674;SDS011;63200;48.810;12.352;2023-06-10T01:19:41;8.10;;;7.10;;
74674;SDS011;63200;48.810;12.352;2023-06-10T01:22:08;8.05;;;7.25;;
74674;SDS011;63200;48.810;12.352;2023-06-10T01:24:36;8.50;;;7.60;;
74674;SDS011;63200;48.810;12.352;2023-06-10T01:27:03;10.10;;;7.90;;
74674;SDS011;63200;48.810;12.352;2023-06-10T01:29:43;8.00;;;7.20;;
74674;SDS011;63200;48.810;12.352;2023-06-10T01:34:42;7.57;;;6.88;;
74674;SDS011;63200;48.810;12.352;2023-06-10T01:37:09;10.70;;;7.60;;
74674;SDS011;63200;48.810;12.352;2023-06-10T01:39:42;8.15;;;6.82;;
74674;SDS011;63200;48.810;12.352;2023-06-10T01:42:08;9.85;;;6.90;;
74674;SDS011;63200;48.810;12.352;2023-06-10T01:44:35;9.13;;;6.80;;
74674;SDS011;63200;48.810;12.352;2023-06-10T01:47:01;8.13;;;6.50;;
74674;SDS011;63200;48.810;12.352;2023-06-10T01:49:26;10.15;;;6.32;;
74674;SDS011;63200;48.810;12.352;2023-06-10T01:51:53;6.72;;;6.07;;
74674;SDS011;63200;48.810;12.352;2023-06-10T01:54:18;7.20;;;6.20;;
74674;SDS011;63200;48.810;12.352;2023-06-10T01:56:44;9.32;;;6.35;;
74674;SDS011;63200;48.810;12.352;2023-06-10T01:59:09;8.98;;;6.70;;
74674;SDS011;63200;48.810;12.352;2023-06-10T02:01:34;7.85;;;6.38;;
74674;SDS011;63200;48.810;12.352;2023-06-10T02:04:00;8.05;;;6.82;;
74674;SDS011;63200;48.810;12.352;2023-06-10T02:06:25;7.47;;;6.47;;
74674;SDS011;63200;48.810;12.352;2023-06-10T02:08:50;8.93;;;6.47;;
74674;SDS011;63200;48.810;12.352;2023-06-10T02:11:16;8.30;;;6.32;;
74674;SDS011;63200;48.810;12.352;2023-06-10T02:13:41;8.02;;;6.93;;
74674;SDS011;63200;48.810;12.352;2023-06-10T02:16:06;6.93;;;6.30;;
74674;SDS011;63200;48.810;12.352;2023-06-10T02:18:32;8.98;;;7.10;;
74674;SDS011;63200;48.810;12.352;2023-06-10T02:20:58;9.65;;;7.47;;
74674;SDS011;63200;48.810;12.352;2023-06-10T02:23:24;10.00;;;7.05;;
74674;SDS011;63200;48.810;12.352;2023-06-10T02:25:49;8.65;;;7.15;;
74674;SDS011;63200;48.810;12.352;2023-06-10T02:28:14;7.93;;;6.13;;
74674;SDS011;63200;48.810;12.352;2023-06-10T02:30:40;9.63;;;7.43;;
74674;SDS011;63200;48.810;12.352;2023-06-10T02:33:06;7.55;;;6.68;;
74674;SDS011;63200;48.810;12.352;2023-06-10T02:35:35;8.30;;;7.47;;
74674;SDS011;63200;48.810;12.352;2023-06-10T02:38:01;8.93;;;6.70;;
74674;SDS011;63200;48.810;12.352;2023-06-10T02:40:26;7.50;;;6.80;;
74674;SDS011;63200;48.810;12.352;2023-06-10T02:42:51;8.50;;;7.07;;
74674;SDS011;63200;48.810;12.352;2023-06-10T02:45:17;9.98;;;6.97;;
74674;SDS011;63200;48.810;12.352;2023-06-10T02:47:42;10.35;;;6.55;;
74674;SDS011;63200;48.810;12.352;2023-06-10T02:50:07;7.90;;;7.10;;
74674;SDS011;63200;48.810;12.352;2023-06-10T02:52:33;7.97;;;6.38;;
74674;SDS011;63200;48.810;12.352;2023-06-10T02:54:58;7.80;;;7.10;;
74674;SDS011;63200;48.810;12.352;2023-06-10T02:57:23;7.55;;;6.82;;
74674;SDS011;63200;48.810;12.352;2023-06-10T02:59:49;8.00;;;7.18;;
74674;SDS011;63200;48.810;12.352;2023-06-10T03:02:16;8.60;;;7.47;;
74674;SDS011;63200;48.810;12.352;2023-06-10T03:04:41;7.20;;;6.50;;
74674;SDS011;63200;48.810;12.352;2023-06-10T03:07:08;7.65;;;6.82;;
74674;SDS011;63200;48.810;12.352;2023-06-10T03:09:36;9.20;;;7.13;;
74674;SDS011;63200;48.810;12.352;2023-06-10T03:12:01;8.05;;;6.70;;
74674;SDS011;63200;48.810;12.352;2023-06-10T03:14:27;8.23;;;6.85;;
74674;SDS011;63200;48.810;12.352;2023-06-10T03:16:52;7.65;;;6.82;;
74674;SDS011;63200;48.810;12.352;2023-06-10T03:19:18;7.90;;;7.10;;
74674;SDS011;63200;48.810;12.352;2023-06-10T03:21:44;8.63;;;7.53;;
74674;SDS011;63200;48.810;12.352;2023-06-10T03:24:09;8.82;;;7.47;;
74674;SDS011;63200;48.810;12.352;2023-06-10T03:26:35;10.55;;;7.07;;
74674;SDS011;63200;48.810;12.352;2023-06-10T03:29:01;11.60;;;8.65;;
74674;SDS011;63200;48.810;12.352;2023-06-10T03:31:26;11.10;;;7.18;;
74674;SDS011;63200;48.810;12.352;2023-06-10T03:33:52;9.55;;;7.78;;
74674;SDS011;63200;48.810;12.352;2023-06-10T03:36:17;9.80;;;8.02;;
74674;SDS011;63200;48.810;12.352;2023-06-10T03:38:42;9.93;;;7.18;;
74674;SDS011;63200;48.810;12.352;2023-06-10T03:41:09;8.38;;;7.53;;
74674;SDS011;63200;48.810;12.352;2023-06-10T03:43:34;9.20;;;7.65;;
74674;SDS011;63200;48.810;12.352;2023-06-10T03:46:00;13.23;;;8.57;;
74674;SDS011;63200;48.810;12.352;2023-06-10T03:48:25;11.60;;;7.55;;
74674;SDS011;63200;48.810;12.352;2023-06-10T03:50:50;14.88;;;7.63;;
74674;SDS011;63200;48.810;12.352;2023-06-10T03:53:17;9.05;;;7.20;;
74674;SDS011;63200;48.810;12.352;2023-06-10T03:55:42;12.20;;;7.32;;
74674;SDS011;63200;48.810;12.352;2023-06-10T03:58:07;13.95;;;7.53;;
74674;SDS011;63200;48.810;12.352;2023-06-10T04:00:33;12.98;;;7.80;;
74674;SDS011;63200;48.810;12.352;2023-06-10T04:03:06;9.02;;;7.65;;
74674;SDS011;63200;48.810;12.352;2023-06-10T04:05:34;9.70;;;7.70;;
74674;SDS011;63200;48.810;12.352;2023-06-10T04:07:59;9.73;;;8.10;;
74674;SDS011;63200;48.810;12.352;2023-06-10T04:10:26;12.18;;;7.80;;
74674;SDS011;63200;48.810;12.352;2023-06-10T04:12:52;12.00;;;8.43;;
74674;SDS011;63200;48.810;12.352;2023-06-10T04:15:17;9.38;;;7.90;;
74674;SDS011;63200;48.810;12.352;2023-06-10T04:17:42;12.25;;;8.48;;
74674;SDS011;63200;48.810;12.352;2023-06-10T04:20:08;12.30;;;8.02;;
74674;SDS011;63200;48.810;12.352;2023-06-10T04:22:34;12.40;;;7.72;;
74674;SDS011;63200;48.810;12.352;2023-06-10T04:25:01;9.23;;;7.18;;
74674;SDS011;63200;48.810;12.352;2023-06-10T04:27:27;10.52;;;7.85;;
74674;SDS011;63200;48.810;12.352;2023-06-10T04:29:52;8.77;;;7.50;;
74674;SDS011;63200;48.810;12.352;2023-06-10T04:32:17;9.02;;;7.75;;
74674;SDS011;63200;48.810;12.352;2023-06-10T04:34:43;9.57;;;8.20;;
74674;SDS011;63200;48.810;12.352;2023-06-10T04:37:08;11.13;;;8.88;;
74674;SDS011;63200;48.810;12.352;2023-06-10T04:39:33;10.57;;;8.02;;
74674;SDS011;63200;48.810;12.352;2023-06-10T04:41:58;9.35;;;8.40;;
74674;SDS011;63200;48.810;12.352;2023-06-10T04:44:25;9.68;;;8.68;;
74674;SDS011;63200;48.810;12.352;2023-06-10T04:46:51;9.93;;;8.63;;
74674;SDS011;63200;48.810;12.352;2023-06-10T04:49:16;9.50;;;7.72;;
74674;SDS011;63200;48.810;12.352;2023-06-10T04:51:41;10.43;;;8.63;;
74674;SDS011;63200;48.810;12.352;2023-06-10T04:54:07;9.40;;;8.40;;
74674;SDS011;63200;48.810;12.352;2023-06-10T04:56:32;10.27;;;9.18;;
74674;SDS011;63200;48.810;12.352;2023-06-10T04:58:58;14.23;;;9.55;;
74674;SDS011;63200;48.810;12.352;2023-06-10T05:01:24;15.27;;;10.40;;
74674;SDS011;63200;48.810;12.352;2023-06-10T05:03:49;11.27;;;9.13;;
74674;SDS011;63200;48.810;12.352;2023-06-10T05:06:14;12.05;;;9.85;;
74674;SDS011;63200;48.810;12.352;2023-06-10T05:08:40;14.43;;;10.27;;
74674;SDS011;63200;48.810;12.352;2023-06-10T05:11:05;12.45;;;10.30;;
74674;SDS011;63200;48.810;12.352;2023-06-10T05:13:31;14.60;;;10.15;;
74674;SDS011;63200;48.810;12.352;2023-06-10T05:15:57;12.23;;;9.55;;
74674;SDS011;63200;48.810;12.352;2023-06-10T05:18:22;14.15;;;9.57;;
74674;SDS011;63200;48.810;12.352;2023-06-10T05:20:48;12.18;;;9.48;;
74674;SDS011;63200;48.810;12.352;2023-06-10T05:23:14;12.45;;;9.60;;
74674;SDS011;63200;48.810;12.352;2023-06-10T05:25:39;11.80;;;10.00;;
74674;SDS011;63200;48.810;12.352;2023-06-10T05:28:05;11.32;;;9.13;;
74674;SDS011;63200;48.810;12.352;2023-06-10T05:30:34;14.65;;;9.23;;
74674;SDS011;63200;48.810;12.352;2023-06-10T05:33:00;13.55;;;9.77;;
74674;SDS011;63200;48.810;12.352;2023-06-10T05:35:25;10.15;;;8.55;;
74674;SDS011;63200;48.810;12.352;2023-06-10T05:37:50;9.98;;;8.63;;
74674;SDS011;63200;48.810;12.352;2023-06-10T05:40:15;12.27;;;9.57;;
74674;SDS011;63200;48.810;12.352;2023-06-10T05:42:41;10.18;;;8.77;;
74674;SDS011;63200;48.810;12.352;2023-06-10T05:45:06;12.25;;;8.60;;
74674;SDS011;63200;48.810;12.352;2023-06-10T05:47:32;13.32;;;9.07;;
74674;SDS011;63200;48.810;12.352;2023-06-10T05:49:57;9.63;;;8.30;;
74674;SDS011;63200;48.810;12.352;2023-06-10T05:52:22;10.05;;;8.48;;
74674;SDS011;63200;48.810;12.352;2023-06-10T05:54:48;11.68;;;8.18;;
74674;SDS011;63200;48.810;12.352;2023-06-10T05:57:15;9.20;;;8.23;;
74674;SDS011;63200;48.810;12.352;2023-06-10T05:59:40;9.40;;;7.75;;
74674;SDS011;63200;48.810;12.352;2023-06-10T06:02:05;13.48;;;9.13;;
74674;SDS011;63200;48.810;12.352;2023-06-10T06:04:31;13.40;;;8.18;;
74674;SDS011;63200;48.810;12.352;2023-06-10T06:06:57;9.55;;;7.80;;
74674;SDS011;63200;48.810;12.352;2023-06-10T06:09:22;8.60;;;7.70;;
74674;SDS011;63200;48.810;12.352;2023-06-10T06:11:47;9.82;;;8.52;;
74674;SDS011;63200;48.810;12.352;2023-06-10T06:14:13;8.88;;;7.97;;
74674;SDS011;63200;48.810;12.352;2023-06-10T06:16:38;9.75;;;8.35;;
74674;SDS011;63200;48.810;12.352;2023-06-10T06:19:03;12.90;;;8.35;;
74674;SDS011;63200;48.810;12.352;2023-06-10T06:21:29;9.18;;;7.68;;
74674;SDS011;63200;48.810;12.352;2023-06-10T06:23:54;7.07;;;6.35;;
74674;SDS011;63200;48.810;12.352;2023-06-10T06:26:19;6.88;;;6.18;;
74674;SDS011;63200;48.810;12.352;2023-06-10T06:28:45;7.97;;;7.18;;
74674;SDS011;63200;48.810;12.352;2023-06-10T06:31:11;9.55;;;6.90;;
74674;SDS011;63200;48.810;12.352;2023-06-10T06:33:36;7.88;;;7.13;;
74674;SDS011;63200;48.810;12.352;2023-06-10T06:36:01;8.73;;;6.50;;
74674;SDS011;63200;48.810;12.352;2023-06-10T06:38:27;8.43;;;6.57;;
74674;SDS011;63200;48.810;12.352;2023-06-10T06:40:52;7.03;;;6.43;;
74674;SDS011;63200;48.810;12.352;2023-06-10T06:43:17;7.63;;;6.90;;
74674;SDS011;63200;48.810;12.352;2023-06-10T06:45:43;7.53;;;6.88;;
74674;SDS011;63200;48.810;12.352;2023-06-10T06:48:10;9.57;;;7.97;;
74674;SDS011;63200;48.810;12.352;2023-06-10T06:50:35;7.50;;;6.90;;
74674;SDS011;63200;48.810;12.352;2023-06-10T06:53:01;9.57;;;6.93;;
74674;SDS011;63200;48.810;12.352;2023-06-10T06:55:26;7.18;;;6.38;;
74674;SDS011;63200;48.810;12.352;2023-06-10T06:57:52;7.13;;;6.25;;
74674;SDS011;63200;48.810;12.352;2023-06-10T07:00:17;7.43;;;6.53;;
74674;SDS011;63200;48.810;12.352;2023-06-10T07:02:43;8.02;;;6.60;;
74674;SDS011;63200;48.810;12.352;2023-06-10T07:05:08;12.23;;;8.27;;
74674;SDS011;63200;48.810;12.352;2023-06-10T07:07:34;6.63;;;5.85;;
74674;SDS011;63200;48.810;12.352;2023-06-10T07:09:59;6.05;;;5.60;;
74674;SDS011;63200;48.810;12.352;2023-06-10T07:12:24;6.60;;;6.00;;
74674;SDS011;63200;48.810;12.352;2023-06-10T07:14:50;6.55;;;5.95;;
74674;SDS011;63200;48.810;12.352;2023-06-10T07:17:16;7.18;;;6.30;;
74674;SDS011;63200;48.810;12.352;2023-06-10T07:19:42;6.57;;;5.97;;
74674;SDS011;63200;48.810;12.352;2023-06-10T07:22:08;7.00;;;6.30;;
74674;SDS011;63200;48.810;12.352;2023-06-10T07:24:33;7.43;;;6.40;;
74674;SDS011;63200;48.810;12.352;2023-06-10T07:26:59;9.30;;;6.80;;
74674;SDS011;63200;48.810;12.352;2023-06-10T07:29:24;8.63;;;6.47;;
74674;SDS011;63200;48.810;12.352;2023-06-10T07:31:49;8.02;;;6.65;;
74674;SDS011;63200;48.810;12.352;2023-06-10T07:34:15;7.18;;;6.53;;
74674;SDS011;63200;48.810;12.352;2023-06-10T07:36:40;6.07;;;5.68;;
74674;SDS011;63200;48.810;12.352;2023-06-10T07:39:05;6.50;;;5.90;;
74674;SDS011;63200;48.810;12.352;2023-06-10T07:41:32;6.97;;;6.32;;
74674;SDS011;63200;48.810;12.352;2023-06-10T07:43:57;7.45;;;6.43;;
74674;SDS011;63200;48.810;12.352;2023-06-10T07:46:23;6.75;;;6.07;;
74674;SDS011;63200;48.810;12.352;2023-06-10T07:48:49;6.65;;;5.90;;
74674;SDS011;63200;48.810;12.352;2023-06-10T07:51:15;6.85;;;5.80;;
74674;SDS011;63200;48.810;12.352;2023-06-10T07:53:41;6.30;;;5.72;;
74674;SDS011;63200;48.810;12.352;2023-06-10T07:56:07;6.35;;;5.85;;
74674;SDS011;63200;48.810;12.352;2023-06-10T07:58:32;6.05;;;5.65;;
74674;SDS011;63200;48.810;12.352;2023-06-10T08:00:58;6.18;;;5.68;;
74674;SDS011;63200;48.810;12.352;2023-06-10T08:03:23;6.05;;;5.60;;
74674;SDS011;63200;48.810;12.352;2023-06-10T08:05:48;6.40;;;5.80;;
74674;SDS011;63200;48.810;12.352;2023-06-10T08:08:14;5.15;;;4.82;;
74674;SDS011;63200;48.810;12.352;2023-06-10T08:10:39;6.20;;;5.80;;
74674;SDS011;63200;48.810;12.352;2023-06-10T08:13:04;6.13;;;5.72;;
74674;SDS011;63200;48.810;12.352;2023-06-10T08:15:30;8.77;;;6.45;;
74674;SDS011;63200;48.810;12.352;2023-06-10T08:17:55;7.78;;;6.82;;
74674;SDS011;63200;48.810;12.352;2023-06-10T08:20:21;7.05;;;5.80;;
74674;SDS011;63200;48.810;12.352;2023-06-10T08:22:47;6.80;;;6.22;;
74674;SDS011;63200;48.810;12.352;2023-06-10T08:25:12;13.98;;;6.88;;
74674;SDS011;63200;48.810;12.352;2023-06-10T08:27:37;7.55;;;5.50;;
74674;SDS011;63200;48.810;12.352;2023-06-10T08:30:03;8.07;;;6.22;;
74674;SDS011;63200;48.810;12.352;2023-06-10T08:32:29;6.78;;;5.50;;
74674;SDS011;63200;48.810;12.352;2023-06-10T08:34:54;11.95;;;5.95;;
74674;SDS011;63200;48.810;12.352;2023-06-10T08:37:20;6.43;;;5.20;;
74674;SDS011;63200;48.810;12.352;2023-06-10T08:39:45;9.80;;;6.47;;
74674;SDS011;63200;48.810;12.352;2023-06-10T08:42:11;7.57;;;6.70;;
74674;SDS011;63200;48.810;12.352;2023-06-10T08:44:39;9.40;;;6.72;;
74674;SDS011;63200;48.810;12.352;2023-06-10T08:47:14;7.07;;;6.47;;
74674;SDS011;63200;48.810;12.352;2023-06-10T08:49:44;6.70;;;6.13;;
74674;SDS011;63200;48.810;12.352;2023-06-10T08:52:13;10.13;;;7.60;;
74674;SDS011;63200;48.810;12.352;2023-06-10T08:54:41;16.30;;;8.63;;
74674;SDS011;63200;48.810;12.352;2023-06-10T08:57:08;20.95;;;8.50;;
74674;SDS011;63200;48.810;12.352;2023-06-10T08:59:34;6.70;;;6.07;;
74674;SDS011;63200;48.810;12.352;2023-06-10T09:01:59;7.05;;;6.35;;
74674;SDS011;63200;48.810;12.352;2023-06-10T09:04:27;6.60;;;6.00;;
74674;SDS011;63200;48.810;12.352;2023-06-10T09:06:53;6.72;;;6.22;;
74674;SDS011;63200;48.810;12.352;2023-06-10T09:09:20;6.15;;;5.65;;
74674;SDS011;63200;48.810;12.352;2023-06-10T09:11:46;6.63;;;6.13;;
74674;SDS011;63200;48.810;12.352;2023-06-10T09:14:12;9.85;;;6.38;;
74674;SDS011;63200;48.810;12.352;2023-06-10T09:16:38;9.90;;;5.70;;
74674;SDS011;63200;48.810;12.352;2023-06-10T09:19:04;5.75;;;5.35;;
74674;SDS011;63200;48.810;12.352;2023-06-10T09:21:33;6.60;;;6.00;;
74674;SDS011;63200;48.810;12.352;2023-06-10T09:23:58;7.82;;;5.72;;
74674;SDS011;63200;48.810;12.352;2023-06-10T09:26:27;5.78;;;5.38;;
74674;SDS011;63200;48.810;12.352;2023-06-10T09:28:57;8.88;;;5.50;;
74674;SDS011;63200;48.810;12.352;2023-06-10T09:31:27;23.42;;;6.97;;
74674;SDS011;63200;48.810;12.352;2023-06-10T09:33:52;10.35;;;5.85;;
74674;SDS011;63200;48.810;12.352;2023-06-10T09:36:21;44.95;;;11.25;;
74674;SDS011;63200;48.810;12.352;2023-06-10T09:38:50;113.40;;;18.63;;
74674;SDS011;63200;48.810;12.352;2023-06-10T09:41:16;5.22;;;4.88;;
74674;SDS011;63200;48.810;12.352;2023-06-10T09:43:45;5.05;;;4.75;;
74674;SDS011;63200;48.810;12.352;2023-06-10T09:46:17;5.63;;;5.22;;
74674;SDS011;63200;48.810;12.352;2023-06-10T09:48:44;5.28;;;4.97;;
74674;SDS011;63200;48.810;12.352;2023-06-10T09:51:11;4.85;;;4.55;;
74674;SDS011;63200;48.810;12.352;2023-06-10T09:53:38;5.68;;;5.00;;
74674;SDS011;63200;48.810;12.352;2023-06-10T09:56:03;7.75;;;5.18;;
74674;SDS011;63200;48.810;12.352;2023-06-10T09:58:36;5.30;;;4.90;;
74674;SDS011;63200;48.810;12.352;2023-06-10T10:01:06;4.95;;;4.65;;
74674;SDS011;63200;48.810;12.352;2023-06-10T10:03:33;5.32;;;4.80;;
74674;SDS011;63200;48.810;12.352;2023-06-10T10:05:59;5.30;;;4.90;;
74674;SDS011;63200;48.810;12.352;2023-06-10T10:08:25;5.07;;;4.50;;
74674;SDS011;63200;48.810;12.352;2023-06-10T10:10:50;4.60;;;4.40;;
74674;SDS011;63200;48.810;12.352;2023-06-10T10:13:16;4.15;;;3.95;;
74674;SDS011;63200;48.810;12.352;2023-06-10T10:15:42;4.30;;;4.00;;
74674;SDS011;63200;48.810;12.352;2023-06-10T10:18:10;4.05;;;3.85;;
74674;SDS011;63200;48.810;12.352;2023-06-10T10:20:57;6.13;;;4.80;;
74674;SDS011;63200;48.810;12.352;2023-06-10T10:23:31;4.75;;;4.55;;
74674;SDS011;63200;48.810;12.352;2023-06-10T10:26:04;4.65;;;4.35;;
74674;SDS011;63200;48.810;12.352;2023-06-10T10:28:37;4.43;;;4.18;;
74674;SDS011;63200;48.810;12.352;2023-06-10T10:31:08;4.53;;;4.18;;
74674;SDS011;63200;48.810;12.352;2023-06-10T10:33:45;10.65;;;4.95;;
74674;SDS011;63200;48.810;12.352;2023-06-10T10:36:21;5.53;;;5.03;;
74674;SDS011;63200;48.810;12.352;2023-06-10T10:38:47;5.97;;;4.70;;
74674;SDS011;63200;48.810;12.352;2023-06-10T10:41:14;4.75;;;4.45;;
74674;SDS011;63200;48.810;12.352;2023-06-10T10:43:40;4.80;;;4.35;;
74674;SDS011;63200;48.810;12.352;2023-06-10T10:46:12;4.43;;;4.07;;
74674;SDS011;63200;48.810;12.352;2023-06-10T10:48:39;5.03;;;4.55;;
74674;SDS011;63200;48.810;12.352;2023-06-10T10:51:06;4.60;;;4.20;;
74674;SDS011;63200;48.810;12.352;2023-06-10T10:53:32;4.95;;;4.55;;
74674;SDS011;63200;48.810;12.352;2023-06-10T10:55:58;4.78;;;4.47;;
74674;SDS011;63200;48.810;12.352;2023-06-10T10:58:25;4.57;;;4.30;;
74674;SDS011;63200;48.810;12.352;2023-06-10T11:00:50;5.93;;;4.68;;
74674;SDS011;63200;48.810;12.352;2023-06-10T11:03:16;4.78;;;4.47;;
74674;SDS011;63200;48.810;12.352;2023-06-10T11:05:46;5.05;;;4.53;;
74674;SDS011;63200;48.810;12.352;2023-06-10T11:08:15;5.22;;;4.68;;
74674;SDS011;63200;48.810;12.352;2023-06-10T11:11:01;4.20;;;3.90;;
74674;SDS011;63200;48.810;12.352;2023-06-10T11:13:56;4.93;;;4.63;;
74674;SDS011;63200;48.810;12.352;2023-06-10T11:16:25;4.65;;;4.20;;
74674;SDS011;63200;48.810;12.352;2023-06-10T11:18:55;5.10;;;4.03;;
74674;SDS011;63200;48.810;12.352;2023-06-10T11:21:23;4.38;;;4.07;;
74674;SDS011;63200;48.810;12.352;2023-06-10T11:23:49;4.70;;;4.40;;
74674;SDS011;63200;48.810;12.352;2023-06-10T11:26:17;4.75;;;4.45;;
74674;SDS011;63200;48.810;12.352;2023-06-10T11:31:26;5.57;;;4.63;;
74674;SDS011;63200;48.810;12.352;2023-06-10T11:33:59;4.90;;;4.55;;
74674;SDS011;63200;48.810;12.352;2023-06-10T11:36:28;4.90;;;4.60;;
74674;SDS011;63200;48.810;12.352;2023-06-10T11:39:03;4.65;;;4.35;;
74674;SDS011;63200;48.810;12.352;2023-06-10T11:41:31;5.72;;;5.32;;
74674;SDS011;63200;48.810;12.352;2023-06-10T11:44:00;5.72;;;5.32;;
74674;SDS011;63200;48.810;12.352;2023-06-10T11:46:27;4.82;;;4.53;;
74674;SDS011;63200;48.810;12.352;2023-06-10T11:48:53;5.75;;;5.25;;
74674;SDS011;63200;48.810;12.352;2023-06-10T11:51:20;5.13;;;4.82;;
74674;SDS011;63200;48.810;12.352;2023-06-10T11:53:48;5.15;;;4.75;;
74674;SDS011;63200;48.810;12.352;2023-06-10T11:56:20;5.50;;;4.93;;
74674;SDS011;63200;48.810;12.352;2023-06-10T11:58:51;5.35;;;4.82;;
74674;SDS011;63200;48.810;12.352;2023-06-10T12:01:23;4.75;;;4.45;;
74674;SDS011;63200;48.810;12.352;2023-06-10T12:03:56;5.63;;;5.18;;
74674;SDS011;63200;48.810;12.352;2023-06-10T12:06:23;5.18;;;4.85;;
74674;SDS011;63200;48.810;12.352;2023-06-10T12:08:48;6.38;;;5.55;;
74674;SDS011;63200;48.810;12.352;2023-06-10T12:11:14;5.60;;;5.03;;
74674;SDS011;63200;48.810;12.352;2023-06-10T12:13:45;5.68;;;5.28;;
74674;SDS011;63200;48.810;12.352;2023-06-10T12:16:14;5.53;;;5.13;;
74674;SDS011;63200;48.810;12.352;2023-06-10T12:18:42;5.43;;;5.00;;
74674;SDS011;63200;48.810;12.352;2023-06-10T12:21:18;4.80;;;4.50;;
74674;SDS011;63200;48.810;12.352;2023-06-10T12:26:48;4.75;;;4.55;;
74674;SDS011;63200;48.810;12.352;2023-06-10T12:29:21;4.82;;;4.45;;
74674;SDS011;63200;48.810;12.352;2023-06-10T12:31:58;4.18;;;3.90;;
74674;SDS011;63200;48.810;12.352;2023-06-10T12:34:32;6.25;;;4.18;;
74674;SDS011;63200;48.810;12.352;2023-06-10T12:37:02;4.18;;;3.97;;
74674;SDS011;63200;48.810;12.352;2023-06-10T12:39:29;4.18;;;3.97;;
74674;SDS011;63200;48.810;12.352;2023-06-10T12:41:54;4.68;;;4.38;;
74674;SDS011;63200;48.810;12.352;2023-06-10T12:44:30;4.30;;;4.10;;
74674;SDS011;63200;48.810;12.352;2023-06-10T12:46:56;3.80;;;3.60;;
74674;SDS011;63200;48.810;12.352;2023-06-10T12:49:21;4.25;;;3.95;;
74674;SDS011;63200;48.810;12.352;2023-06-10T12:51:47;4.18;;;3.85;;
74674;SDS011;63200;48.810;12.352;2023-06-10T12:54:13;3.70;;;3.50;;
74674;SDS011;63200;48.810;12.352;2023-06-10T12:56:38;4.18;;;3.97;;
74674;SDS011;63200;48.810;12.352;2023-06-10T12:59:04;3.55;;;3.38;;
74674;SDS011;63200;48.810;12.352;2023-06-10T13:01:29;4.05;;;3.75;;
74674;SDS011;63200;48.810;12.352;2023-06-10T13:03:56;3.80;;;3.60;;
74674;SDS011;63200;48.810;12.352;2023-06-10T13:06:21;3.92;;;3.70;;
74674;SDS011;63200;48.810;12.352;2023-06-10T13:08:47;4.50;;;4.20;;
74674;SDS011;63200;48.810;12.352;2023-06-10T13:11:12;7.63;;;4.88;;
74674;SDS011;63200;48.810;12.352;2023-06-10T13:13:37;4.70;;;4.30;;
74674;SDS011;63200;48.810;12.352;2023-06-10T13:16:03;5.70;;;4.60;;
74674;SDS011;63200;48.810;12.352;2023-06-10T13:18:28;4.65;;;4.25;;
74674;SDS011;63200;48.810;12.352;2023-06-10T13:20:54;5.82;;;4.57;;
74674;SDS011;63200;48.810;12.352;2023-06-10T13:23:19;4.28;;;4.07;;
74674;SDS011;63200;48.810;12.352;2023-06-10T13:25:44;4.88;;;4.47;;
74674;SDS011;63200;48.810;12.352;2023-06-10T13:28:10;4.72;;;4.32;;
74674;SDS011;63200;48.810;12.352;2023-06-10T13:30:36;4.10;;;3.90;;
74674;SDS011;63200;48.810;12.352;2023-06-10T13:33:02;3.58;;;3.33;;
74674;SDS011;63200;48.810;12.352;2023-06-10T13:35:27;3.58;;;3.33;;
74674;SDS011;63200;48.810;12.352;2023-06-10T13:37:52;4.75;;;3.97;;
74674;SDS011;63200;48.810;12.352;2023-06-10T13:40:17;4.75;;;4.40;;
74674;SDS011;63200;48.810;12.352;2023-06-10T13:42:44;4.13;;;3.92;;
74674;SDS011;63200;48.810;12.352;2023-06-10T13:45:10;4.20;;;3.85;;
74674;SDS011;63200;48.810;12.352;2023-06-10T13:47:35;4.60;;;4.30;;
74674;SDS011;63200;48.810;12.352;2023-06-10T13:50:00;4.10;;;3.90;;
74674;SDS011;63200;48.810;12.352;2023-06-10T13:52:26;4.80;;;3.90;;
74674;SDS011;63200;48.810;12.352;2023-06-10T13:54:51;4.30;;;4.00;;
74674;SDS011;63200;48.810;12.352;2023-06-10T13:57:16;3.90;;;3.70;;
74674;SDS011;63200;48.810;12.352;2023-06-10T13:59:42;4.70;;;4.32;;
74674;SDS011;63200;48.810;12.352;2023-06-10T14:02:08;3.88;;;3.70;;
74674;SDS011;63200;48.810;12.352;2023-06-10T14:04:34;3.92;;;3.70;;
74674;SDS011;63200;48.810;12.352;2023-06-10T14:06:59;4.13;;;3.78;;
74674;SDS011;63200;48.810;12.352;2023-06-10T14:09:25;4.10;;;3.90;;
74674;SDS011;63200;48.810;12.352;2023-06-10T14:11:51;5.50;;;5.00;;
74674;SDS011;63200;48.810;12.352;2023-06-10T14:14:16;4.43;;;4.15;;
74674;SDS011;63200;48.810;12.352;2023-06-10T14:16:42;4.45;;;4.15;;
74674;SDS011;63200;48.810;12.352;2023-06-10T14:19:07;4.22;;;4.03;;
74674;SDS011;63200;48.810;12.352;2023-06-10T14:21:32;4.57;;;4.25;;
74674;SDS011;63200;48.810;12.352;2023-06-10T14:23:58;5.32;;;4.82;;
74674;SDS011;63200;48.810;12.352;2023-06-10T14:26:23;4.85;;;4.55;;
74674;SDS011;63200;48.810;12.352;2023-06-10T14:28:49;5.00;;;4.70;;
74674;SDS011;63200;48.810;12.352;2023-06-10T14:31:15;5.22;;;4.80;;
74674;SDS011;63200;48.810;12.352;2023-06-10T14:33:40;5.30;;;4.90;;
74674;SDS011;63200;48.810;12.352;2023-06-10T14:36:08;7.93;;;4.80;;
74674;SDS011;63200;48.810;12.352;2023-06-10T14:38:33;5.43;;;5.03;;